sensor_id;sensor_type;location;lat;lon;timestamp;pressure;altitude;pressure_sealevel;temperature;humidity
7168;BME280;3625;51.762;14.320;2022-11-20T00:01:37;100394.41;;;-0.15;96.47
7168;BME280;3625;51.762;14.320;2022-11-20T00:04:06;100388.03;;;-0.31;98.42
7168;BME280;3625;51.762;14.320;2022-11-20T00:06:36;100386.91;;;-0.42;100.00
7168;BME280;3625;51.762;14.320;2022-11-20T00:09:05;100387.59;;;-0.52;100.00
7168;BME280;3625;51.762;14.320;2022-11-20T00:11:33;100384.81;;;-0.60;100.00
7168;BME280;3625;51.762;14.320;2022-11-20T00:14:02;100384.84;;;-0.58;100.00
7168;BME280;3625;51.762;14.320;2022-11-20T00:16:32;100384.19;;;-0.48;100.00
7168;BME280;3625;51.762;14.320;2022-11-20T00:19:01;100385.34;;;-0.35;100.00
7168;BME280;3625;51.762;14.320;2022-11-20T00:21:30;100386.44;;;-0.23;100.00
7168;BME280;3625;51.762;14.320;2022-11-20T00:24:00;100381.50;;;-0.11;100.00
7168;BME280;3625;51.762;14.320;2022-11-20T00:26:29;100384.22;;;-0.05;100.00
7168;BME280;3625;51.762;14.320;2022-11-20T00:29:00;100381.81;;;0.06;100.00
7168;BME280;3625;51.762;14.320;2022-11-20T00:31:30;100382.78;;;0.11;100.00
7168;BME280;3625;51.762;14.320;2022-11-20T00:34:00;100385.25;;;0.05;100.00
7168;BME280;3625;51.762;14.320;2022-11-20T00:36:31;100385.22;;;0.04;100.00
7168;BME280;3625;51.762;14.320;2022-11-20T00:39:02;100377.53;;;0.08;100.00
7168;BME280;3625;51.762;14.320;2022-11-20T00:41:30;100389.69;;;0.11;100.00
7168;BME280;3625;51.762;14.320;2022-11-20T00:43:59;100389.75;;;0.14;100.00
7168;BME280;3625;51.762;14.320;2022-11-20T00:46:28;100380.28;;;0.16;100.00
7168;BME280;3625;51.762;14.320;2022-11-20T00:48:57;100377.69;;;0.19;100.00
7168;BME280;3625;51.762;14.320;2022-11-20T00:51:27;100375.97;;;0.19;100.00
7168;BME280;3625;51.762;14.320;2022-11-20T00:53:56;100371.66;;;0.20;100.00
7168;BME280;3625;51.762;14.320;2022-11-20T00:56:29;100375.94;;;0.16;100.00
7168;BME280;3625;51.762;14.320;2022-11-20T00:59:00;100382.84;;;0.14;100.00
7168;BME280;3625;51.762;14.320;2022-11-20T01:01:29;100381.94;;;0.12;100.00
7168;BME280;3625;51.762;14.320;2022-11-20T01:03:59;100388.06;;;0.16;100.00
7168;BME280;3625;51.762;14.320;2022-11-20T01:06:30;100384.59;;;0.15;100.00
7168;BME280;3625;51.762;14.320;2022-11-20T01:09:02;100376.00;;;0.21;100.00
7168;BME280;3625;51.762;14.320;2022-11-20T01:11:35;100376.06;;;0.24;100.00
7168;BME280;3625;51.762;14.320;2022-11-20T01:14:06;100378.72;;;0.27;100.00
7168;BME280;3625;51.762;14.320;2022-11-20T01:16:36;100380.47;;;0.28;100.00
7168;BME280;3625;51.762;14.320;2022-11-20T01:19:09;100385.63;;;0.26;100.00
7168;BME280;3625;51.762;14.320;2022-11-20T01:21:45;100389.13;;;0.27;100.00
7168;BME280;3625;51.762;14.320;2022-11-20T01:24:16;100390.88;;;0.28;100.00
7168;BME280;3625;51.762;14.320;2022-11-20T01:26:48;100392.66;;;0.30;100.00
7168;BME280;3625;51.762;14.320;2022-11-20T01:29:19;100381.31;;;0.27;100.00
7168;BME280;3625;51.762;14.320;2022-11-20T01:31:49;100389.19;;;0.30;100.00
7168;BME280;3625;51.762;14.320;2022-11-20T01:34:20;100382.13;;;0.23;100.00
7168;BME280;3625;51.762;14.320;2022-11-20T01:36:50;100381.22;;;0.21;100.00
7168;BME280;3625;51.762;14.320;2022-11-20T01:39:20;100383.88;;;0.24;100.00
7168;BME280;3625;51.762;14.320;2022-11-20T01:41:53;100382.06;;;0.20;100.00
7168;BME280;3625;51.762;14.320;2022-11-20T01:44:54;100385.56;;;0.22;100.00
7168;BME280;3625;51.762;14.320;2022-11-20T01:47:32;100378.69;;;0.24;100.00
7168;BME280;3625;51.762;14.320;2022-11-20T01:50:06;100376.13;;;0.27;100.00
7168;BME280;3625;51.762;14.320;2022-11-20T01:52:42;100371.75;;;0.24;100.00
7168;BME280;3625;51.762;14.320;2022-11-20T01:55:17;100370.84;;;0.22;100.00
7168;BME280;3625;51.762;14.320;2022-11-20T01:57:49;100364.69;;;0.19;100.00
7168;BME280;3625;51.762;14.320;2022-11-20T02:00:20;100340.13;;;0.02;100.00
7168;BME280;3625;51.762;14.320;2022-11-20T02:02:52;100368.09;;;0.15;100.00
7168;BME280;3625;51.762;14.320;2022-11-20T02:05:25;100365.44;;;0.12;100.00
7168;BME280;3625;51.762;14.320;2022-11-20T02:07:57;100368.81;;;0.06;100.00
7168;BME280;3625;51.762;14.320;2022-11-20T02:10:27;100369.59;;;0.02;100.00
7168;BME280;3625;51.762;14.320;2022-11-20T02:12:58;100365.19;;;-0.02;100.00
7168;BME280;3625;51.762;14.320;2022-11-20T02:15:45;100367.84;;;-0.01;100.00
7168;BME280;3625;51.762;14.320;2022-11-20T02:19:04;100302.88;;;-0.44;100.00
7168;BME280;3625;51.762;14.320;2022-11-20T02:21:29;100353.56;;;-0.21;100.00
7168;BME280;3625;51.762;14.320;2022-11-20T02:24:08;100352.44;;;-0.35;100.00
7168;BME280;3625;51.762;14.320;2022-11-20T02:26:44;100358.28;;;-0.45;100.00
7168;BME280;3625;51.762;14.320;2022-11-20T02:29:16;100354.66;;;-0.53;100.00
7168;BME280;3625;51.762;14.320;2022-11-20T02:31:48;100354.59;;;-0.56;100.00
7168;BME280;3625;51.762;14.320;2022-11-20T02:34:16;100350.31;;;-0.54;100.00
7168;BME280;3625;51.762;14.320;2022-11-20T02:36:45;100355.47;;;-0.56;100.00
7168;BME280;3625;51.762;14.320;2022-11-20T02:39:16;100346.84;;;-0.55;100.00
7168;BME280;3625;51.762;14.320;2022-11-20T02:41:45;100345.00;;;-0.59;100.00
7168;BME280;3625;51.762;14.320;2022-11-20T02:44:14;100340.56;;;-0.64;100.00
7168;BME280;3625;51.762;14.320;2022-11-20T02:46:42;100347.41;;;-0.69;100.00
7168;BME280;3625;51.762;14.320;2022-11-20T02:49:11;100338.53;;;-0.78;100.00
7168;BME280;3625;51.762;14.320;2022-11-20T02:51:40;100339.25;;;-0.85;100.00
7168;BME280;3625;51.762;14.320;2022-11-20T02:54:08;100337.41;;;-0.90;100.00
7168;BME280;3625;51.762;14.320;2022-11-20T02:56:39;100334.69;;;-0.95;100.00
7168;BME280;3625;51.762;14.320;2022-11-20T02:59:08;100336.38;;;-0.98;100.00
7168;BME280;3625;51.762;14.320;2022-11-20T03:01:37;100340.47;;;-1.08;100.00
7168;BME280;3625;51.762;14.320;2022-11-20T03:04:06;100340.41;;;-1.12;100.00
7168;BME280;3625;51.762;14.320;2022-11-20T03:06:34;100335.09;;;-1.17;100.00
7168;BME280;3625;51.762;14.320;2022-11-20T03:09:03;100330.63;;;-1.23;100.00
7168;BME280;3625;51.762;14.320;2022-11-20T03:11:32;100332.19;;;-1.29;100.00
7168;BME280;3625;51.762;14.320;2022-11-20T03:14:03;100331.97;;;-1.38;100.00
7168;BME280;3625;51.762;14.320;2022-11-20T03:16:32;100335.19;;;-1.50;100.00
7168;BME280;3625;51.762;14.320;2022-11-20T03:19:01;100327.97;;;-1.62;100.00
7168;BME280;3625;51.762;14.320;2022-11-20T03:21:30;100332.09;;;-1.70;100.00
7168;BME280;3625;51.762;14.320;2022-11-20T03:23:58;100336.25;;;-1.76;100.00
7168;BME280;3625;51.762;14.320;2022-11-20T03:26:27;100337.09;;;-1.77;100.00
7168;BME280;3625;51.762;14.320;2022-11-20T03:28:57;100328.44;;;-1.78;100.00
7168;BME280;3625;51.762;14.320;2022-11-20T03:31:29;100328.38;;;-1.79;100.00
7168;BME280;3625;51.762;14.320;2022-11-20T03:33:58;100324.91;;;-1.80;100.00
7168;BME280;3625;51.762;14.320;2022-11-20T03:36:27;100326.56;;;-1.83;100.00
7168;BME280;3625;51.762;14.320;2022-11-20T03:38:57;100317.00;;;-1.86;100.00
7168;BME280;3625;51.762;14.320;2022-11-20T03:41:27;100308.28;;;-1.88;100.00
7168;BME280;3625;51.762;14.320;2022-11-20T03:43:57;100319.44;;;-1.92;100.00
7168;BME280;3625;51.762;14.320;2022-11-20T03:46:28;100310.59;;;-1.99;100.00
7168;BME280;3625;51.762;14.320;2022-11-20T03:48:57;100315.75;;;-2.02;100.00
7168;BME280;3625;51.762;14.320;2022-11-20T03:51:27;100307.91;;;-2.03;100.00
7168;BME280;3625;51.762;14.320;2022-11-20T03:53:58;100312.13;;;-2.07;100.00
7168;BME280;3625;51.762;14.320;2022-11-20T03:56:30;100312.06;;;-2.10;100.00
7168;BME280;3625;51.762;14.320;2022-11-20T03:58:59;100311.88;;;-2.17;100.00
7168;BME280;3625;51.762;14.320;2022-11-20T04:01:31;100305.69;;;-2.22;100.00
7168;BME280;3625;51.762;14.320;2022-11-20T04:04:00;100305.69;;;-2.22;100.00
7168;BME280;3625;51.762;14.320;2022-11-20T04:06:33;100304.94;;;-2.18;100.00
7168;BME280;3625;51.762;14.320;2022-11-20T04:09:02;100294.47;;;-2.21;100.00
7168;BME280;3625;51.762;14.320;2022-11-20T04:11:32;100297.94;;;-2.21;100.00
7168;BME280;3625;51.762;14.320;2022-11-20T04:14:02;100303.13;;;-2.21;100.00
7168;BME280;3625;51.762;14.320;2022-11-20T04:16:34;100300.69;;;-2.16;100.00
7168;BME280;3625;51.762;14.320;2022-11-20T04:19:04;100305.97;;;-2.12;100.00
7168;BME280;3625;51.762;14.320;2022-11-20T04:21:33;100301.75;;;-2.07;100.00
7168;BME280;3625;51.762;14.320;2022-11-20T04:24:02;100302.63;;;-2.06;100.00
7168;BME280;3625;51.762;14.320;2022-11-20T04:26:31;100225.66;;;-2.45;100.00
7168;BME280;3625;51.762;14.320;2022-11-20T04:29:00;100297.63;;;-2.00;100.00
7168;BME280;3625;51.762;14.320;2022-11-20T04:31:32;100263.63;;;-2.12;100.00
7168;BME280;3625;51.762;14.320;2022-11-20T04:34:04;100298.53;;;-1.98;100.00
7168;BME280;3625;51.762;14.320;2022-11-20T04:36:34;100242.75;;;-2.18;100.00
7168;BME280;3625;51.762;14.320;2022-11-20T04:39:05;100286.69;;;-1.88;100.00
7168;BME280;3625;51.762;14.320;2022-11-20T04:41:35;100285.69;;;-1.94;100.00
7168;BME280;3625;51.762;14.320;2022-11-20T04:44:05;100288.16;;;-2.00;100.00
7168;BME280;3625;51.762;14.320;2022-11-20T04:46:37;100301.84;;;-2.04;100.00
7168;BME280;3625;51.762;14.320;2022-11-20T04:49:07;100297.31;;;-2.12;100.00
7168;BME280;3625;51.762;14.320;2022-11-20T04:51:36;100298.88;;;-2.19;100.00
7168;BME280;3625;51.762;14.320;2022-11-20T04:54:05;100300.59;;;-2.19;100.00
7168;BME280;3625;51.762;14.320;2022-11-20T04:56:34;100295.41;;;-2.19;100.00
7168;BME280;3625;51.762;14.320;2022-11-20T04:59:03;100305.69;;;-2.22;100.00
7168;BME280;3625;51.762;14.320;2022-11-20T05:01:31;100305.81;;;-2.18;100.00
7168;BME280;3625;51.762;14.320;2022-11-20T05:04:01;100306.84;;;-2.11;100.00
7168;BME280;3625;51.762;14.320;2022-11-20T05:06:30;100300.97;;;-2.04;100.00
7168;BME280;3625;51.762;14.320;2022-11-20T05:08:59;100308.88;;;-2.00;100.00
7168;BME280;3625;51.762;14.320;2022-11-20T05:11:28;100301.13;;;-1.98;100.00
7168;BME280;3625;51.762;14.320;2022-11-20T05:13:59;100302.88;;;-1.97;100.00
7168;BME280;3625;51.762;14.320;2022-11-20T05:16:28;100302.91;;;-1.96;100.00
7168;BME280;3625;51.762;14.320;2022-11-20T05:18:56;100304.72;;;-1.93;100.00
7168;BME280;3625;51.762;14.320;2022-11-20T05:21:26;100312.56;;;-1.90;100.00
7168;BME280;3625;51.762;14.320;2022-11-20T05:23:55;100309.22;;;-1.86;100.00
7168;BME280;3625;51.762;14.320;2022-11-20T05:26:24;100318.03;;;-1.79;100.00
7168;BME280;3625;51.762;14.320;2022-11-20T05:28:53;100313.75;;;-1.77;100.00
7168;BME280;3625;51.762;14.320;2022-11-20T05:31:23;100308.63;;;-1.76;100.00
7168;BME280;3625;51.762;14.320;2022-11-20T05:33:55;100260.56;;;-1.96;100.00
7168;BME280;3625;51.762;14.320;2022-11-20T05:36:26;100307.91;;;-1.69;100.00
7168;BME280;3625;51.762;14.320;2022-11-20T05:38:54;100304.34;;;-1.74;100.00
7168;BME280;3625;51.762;14.320;2022-11-20T05:41:28;100304.34;;;-1.72;100.00
7168;BME280;3625;51.762;14.320;2022-11-20T05:43:57;100305.31;;;-1.69;100.00
7168;BME280;3625;51.762;14.320;2022-11-20T05:46:26;100296.63;;;-1.71;100.00
7168;BME280;3625;51.762;14.320;2022-11-20T05:48:57;100297.38;;;-1.76;100.00
7168;BME280;3625;51.762;14.320;2022-11-20T05:51:27;100289.53;;;-1.78;100.00
7168;BME280;3625;51.762;14.320;2022-11-20T05:53:57;100287.88;;;-1.76;100.00
7168;BME280;3625;51.762;14.320;2022-11-20T05:56:26;100282.63;;;-1.77;100.00
7168;BME280;3625;51.762;14.320;2022-11-20T05:58:54;100286.13;;;-1.77;100.00
7168;BME280;3625;51.762;14.320;2022-11-20T06:01:25;100281.91;;;-1.73;100.00
7168;BME280;3625;51.762;14.320;2022-11-20T06:03:55;100286.22;;;-1.72;100.00
7168;BME280;3625;51.762;14.320;2022-11-20T06:06:23;100286.22;;;-1.72;100.00
7168;BME280;3625;51.762;14.320;2022-11-20T06:08:54;100281.84;;;-1.75;100.00
7168;BME280;3625;51.762;14.320;2022-11-20T06:11:23;100277.47;;;-1.77;100.00
7168;BME280;3625;51.762;14.320;2022-11-20T06:13:52;100279.16;;;-1.78;100.00
7168;BME280;3625;51.762;14.320;2022-11-20T06:16:21;100279.25;;;-1.75;100.00
7168;BME280;3625;51.762;14.320;2022-11-20T06:18:50;100279.31;;;-1.72;100.00
7168;BME280;3625;51.762;14.320;2022-11-20T06:21:20;100287.09;;;-1.72;100.00
7168;BME280;3625;51.762;14.320;2022-11-20T06:23:50;100280.22;;;-1.70;100.00
7168;BME280;3625;51.762;14.320;2022-11-20T06:26:22;100260.00;;;-1.84;100.00
7168;BME280;3625;51.762;14.320;2022-11-20T06:28:52;100288.13;;;-1.65;100.00
7168;BME280;3625;51.762;14.320;2022-11-20T06:31:22;100284.59;;;-1.69;100.00
7168;BME280;3625;51.762;14.320;2022-11-20T06:33:51;100283.63;;;-1.72;100.00
7168;BME280;3625;51.762;14.320;2022-11-20T06:36:22;100247.69;;;-1.93;100.00
7168;BME280;3625;51.762;14.320;2022-11-20T06:38:50;100287.13;;;-1.70;100.00
7168;BME280;3625;51.762;14.320;2022-11-20T06:41:21;100285.47;;;-1.68;100.00
7168;BME280;3625;51.762;14.320;2022-11-20T06:43:50;100283.69;;;-1.69;100.00
7168;BME280;3625;51.762;14.320;2022-11-20T06:46:20;100281.00;;;-1.74;100.00
7168;BME280;3625;51.762;14.320;2022-11-20T06:48:49;100206.63;;;-2.12;100.00
7168;BME280;3625;51.762;14.320;2022-11-20T06:51:18;100293.19;;;-1.70;100.00
7168;BME280;3625;51.762;14.320;2022-11-20T06:53:47;100276.75;;;-1.70;100.00
7168;BME280;3625;51.762;14.320;2022-11-20T06:56:15;100283.78;;;-1.66;100.00
7168;BME280;3625;51.762;14.320;2022-11-20T06:58:45;100277.03;;;-1.60;100.00
7168;BME280;3625;51.762;14.320;2022-11-20T07:01:15;100278.81;;;-1.56;100.00
7168;BME280;3625;51.762;14.320;2022-11-20T07:03:44;100288.59;;;-1.45;100.00
7168;BME280;3625;51.762;14.320;2022-11-20T07:06:19;100288.78;;;-1.36;100.00
7168;BME280;3625;51.762;14.320;2022-11-20T07:08:47;100288.97;;;-1.30;100.00
7168;BME280;3625;51.762;14.320;2022-11-20T07:11:18;100282.34;;;-1.16;100.00
7168;BME280;3625;51.762;14.320;2022-11-20T07:13:48;100285.09;;;-1.08;100.00
7168;BME280;3625;51.762;14.320;2022-11-20T07:16:17;100279.16;;;-1.04;100.00
7168;BME280;3625;51.762;14.320;2022-11-20T07:18:45;100281.75;;;-1.03;100.00
7168;BME280;3625;51.762;14.320;2022-11-20T07:21:17;100278.16;;;-1.09;100.00
7168;BME280;3625;51.762;14.320;2022-11-20T07:23:47;100273.72;;;-1.15;100.00
7168;BME280;3625;51.762;14.320;2022-11-20T07:26:16;100271.84;;;-1.22;100.00
7168;BME280;3625;51.762;14.320;2022-11-20T07:28:45;100274.34;;;-1.25;100.00
7168;BME280;3625;51.762;14.320;2022-11-20T07:31:15;100272.84;;;-1.16;100.00
7168;BME280;3625;51.762;14.320;2022-11-20T07:33:46;100272.28;;;-1.01;100.00
7168;BME280;3625;51.762;14.320;2022-11-20T07:36:14;100270.06;;;-0.83;100.00
7168;BME280;3625;51.762;14.320;2022-11-20T07:38:43;100268.59;;;-0.70;100.00
7168;BME280;3625;51.762;14.320;2022-11-20T07:41:12;100273.94;;;-0.62;100.00
7168;BME280;3625;51.762;14.320;2022-11-20T07:43:41;100274.91;;;-0.57;100.00
7168;BME280;3625;51.762;14.320;2022-11-20T07:46:10;100270.72;;;-0.49;100.00
7168;BME280;3625;51.762;14.320;2022-11-20T07:48:40;100263.03;;;-0.43;100.00
7168;BME280;3625;51.762;14.320;2022-11-20T07:51:09;100267.53;;;-0.34;100.00
7168;BME280;3625;51.762;14.320;2022-11-20T07:53:37;100266.13;;;-0.16;100.00
7168;BME280;3625;51.762;14.320;2022-11-20T07:56:07;100262.75;;;-0.12;100.00
7168;BME280;3625;51.762;14.320;2022-11-20T07:58:36;100261.25;;;0.03;100.00
7168;BME280;3625;51.762;14.320;2022-11-20T08:01:05;100263.03;;;0.05;100.00
7168;BME280;3625;51.762;14.320;2022-11-20T08:03:35;100261.34;;;0.07;100.00
7168;BME280;3625;51.762;14.320;2022-11-20T08:06:08;100261.22;;;0.01;99.67
7168;BME280;3625;51.762;14.320;2022-11-20T08:08:37;100257.78;;;0.02;99.64
7168;BME280;3625;51.762;14.320;2022-11-20T08:11:09;100262.06;;;-0.02;100.00
7168;BME280;3625;51.762;14.320;2022-11-20T08:13:55;100243.06;;;0.03;99.89
7168;BME280;3625;51.762;14.320;2022-11-20T08:16:44;100258.91;;;0.18;99.52
7168;BME280;3625;51.762;14.320;2022-11-20T08:19:15;100259.97;;;0.29;98.98
7168;BME280;3625;51.762;14.320;2022-11-20T08:21:46;100257.59;;;0.44;97.48
7168;BME280;3625;51.762;14.320;2022-11-20T08:24:15;100255.25;;;0.59;96.58
7168;BME280;3625;51.762;14.320;2022-11-20T08:26:44;100257.97;;;0.70;95.59
7168;BME280;3625;51.762;14.320;2022-11-20T08:29:13;100255.53;;;0.81;95.02
7168;BME280;3625;51.762;14.320;2022-11-20T08:31:41;100257.66;;;1.10;94.47
7168;BME280;3625;51.762;14.320;2022-11-20T08:34:11;100263.78;;;1.16;91.70
7168;BME280;3625;51.762;14.320;2022-11-20T08:36:46;100262.91;;;1.15;91.06
7168;BME280;3625;51.762;14.320;2022-11-20T08:39:15;100258.66;;;1.23;90.79
7168;BME280;3625;51.762;14.320;2022-11-20T08:41:44;100254.31;;;1.21;90.58
7168;BME280;3625;51.762;14.320;2022-11-20T08:44:13;100256.19;;;1.32;89.97
7168;BME280;3625;51.762;14.320;2022-11-20T08:46:42;100255.28;;;1.30;88.92
7168;BME280;3625;51.762;14.320;2022-11-20T08:49:13;100254.50;;;1.36;88.98
7168;BME280;3625;51.762;14.320;2022-11-20T08:51:43;100253.66;;;1.37;88.20
7168;BME280;3625;51.762;14.320;2022-11-20T08:54:14;100259.06;;;1.58;89.63
7168;BME280;3625;51.762;14.320;2022-11-20T08:56:45;100254.06;;;1.76;88.33
7168;BME280;3625;51.762;14.320;2022-11-20T08:59:15;100259.41;;;1.90;88.61
7168;BME280;3625;51.762;14.320;2022-11-20T09:02:04;100255.91;;;1.88;85.29
7168;BME280;3625;51.762;14.320;2022-11-20T09:04:33;100257.66;;;1.89;84.77
7168;BME280;3625;51.762;14.320;2022-11-20T09:07:02;100249.72;;;1.78;84.56
7168;BME280;3625;51.762;14.320;2022-11-20T09:09:32;100241.81;;;1.69;85.23
7168;BME280;3625;51.762;14.320;2022-11-20T09:12:01;100245.31;;;1.71;84.76
7168;BME280;3625;51.762;14.320;2022-11-20T09:14:30;100247.00;;;1.66;86.02
7168;BME280;3625;51.762;14.320;2022-11-20T09:16:59;100241.88;;;1.77;85.57
7168;BME280;3625;51.762;14.320;2022-11-20T09:19:28;100232.41;;;1.86;83.82
7168;BME280;3625;51.762;14.320;2022-11-20T09:22:04;100230.69;;;1.87;83.18
7168;BME280;3625;51.762;14.320;2022-11-20T09:24:34;100227.28;;;1.94;82.66
7168;BME280;3625;51.762;14.320;2022-11-20T09:27:04;100225.63;;;2.04;83.24
7168;BME280;3625;51.762;14.320;2022-11-20T09:29:33;100224.94;;;2.24;82.34
7168;BME280;3625;51.762;14.320;2022-11-20T09:32:01;100218.88;;;2.30;81.22
7168;BME280;3625;51.762;14.320;2022-11-20T09:34:30;100217.28;;;2.53;81.42
7168;BME280;3625;51.762;14.320;2022-11-20T09:36:59;100219.94;;;2.61;78.67
7168;BME280;3625;51.762;14.320;2022-11-20T09:39:35;100219.09;;;2.63;78.70
7168;BME280;3625;51.762;14.320;2022-11-20T09:42:27;100225.16;;;2.61;77.60
7168;BME280;3625;51.762;14.320;2022-11-20T09:45:18;100212.19;;;2.73;78.63
7168;BME280;3625;51.762;14.320;2022-11-20T09:48:10;100219.09;;;2.65;78.49
7168;BME280;3625;51.762;14.320;2022-11-20T09:50:46;100225.19;;;2.64;77.99
7168;BME280;3625;51.762;14.320;2022-11-20T09:53:27;100207.75;;;2.63;77.73
7168;BME280;3625;51.762;14.320;2022-11-20T09:56:01;100211.19;;;2.54;77.99
7168;BME280;3625;51.762;14.320;2022-11-20T09:58:35;100205.09;;;2.49;77.94
7168;BME280;3625;51.762;14.320;2022-11-20T10:01:12;100201.47;;;2.34;77.63
7168;BME280;3625;51.762;14.320;2022-11-20T10:03:54;100198.91;;;2.37;77.64
7168;BME280;3625;51.762;14.320;2022-11-20T10:06:29;100197.16;;;2.37;77.43
7168;BME280;3625;51.762;14.320;2022-11-20T10:09:06;100192.78;;;2.35;78.15
7168;BME280;3625;51.762;14.320;2022-11-20T10:11:52;100186.03;;;2.70;77.54
7168;BME280;3625;51.762;14.320;2022-11-20T10:14:31;100174.88;;;3.01;76.52
7168;BME280;3625;51.762;14.320;2022-11-20T10:17:12;100177.56;;;3.26;73.59
7168;BME280;3625;51.762;14.320;2022-11-20T10:20:08;100179.34;;;3.51;72.12
7168;BME280;3625;51.762;14.320;2022-11-20T10:23:05;100175.03;;;3.84;73.20
7168;BME280;3625;51.762;14.320;2022-11-20T10:25:43;100177.63;;;4.18;70.54
7168;BME280;3625;51.762;14.320;2022-11-20T10:28:28;100175.88;;;4.40;66.98
7168;BME280;3625;51.762;14.320;2022-11-20T10:31:03;100179.34;;;4.45;64.25
7168;BME280;3625;51.762;14.320;2022-11-20T10:33:35;100171.44;;;4.51;63.81
7168;BME280;3625;51.762;14.320;2022-11-20T10:36:27;100166.25;;;4.48;61.79
7168;BME280;3625;51.762;14.320;2022-11-20T10:39:01;100168.84;;;4.56;63.07
7168;BME280;3625;51.762;14.320;2022-11-20T10:41:40;100151.41;;;4.40;60.75
7168;BME280;3625;51.762;14.320;2022-11-20T10:44:15;100165.38;;;4.37;60.82
7168;BME280;3625;51.762;14.320;2022-11-20T10:47:08;100166.25;;;4.24;63.89
7168;BME280;3625;51.762;14.320;2022-11-20T10:49:38;100161.03;;;4.27;64.34
7168;BME280;3625;51.762;14.320;2022-11-20T10:52:13;100163.66;;;4.21;62.00
7168;BME280;3625;51.762;14.320;2022-11-20T10:54:49;100155.81;;;4.23;62.33
7168;BME280;3625;51.762;14.320;2022-11-20T10:57:29;100154.06;;;4.28;62.71
7168;BME280;3625;51.762;14.320;2022-11-20T11:00:07;100161.91;;;4.17;60.21
7168;BME280;3625;51.762;14.320;2022-11-20T11:02:41;100155.81;;;4.09;61.38
7168;BME280;3625;51.762;14.320;2022-11-20T11:05:25;100160.19;;;3.95;61.81
7168;BME280;3625;51.762;14.320;2022-11-20T11:07:58;100162.81;;;3.70;60.03
7168;BME280;3625;51.762;14.320;2022-11-20T11:10:32;100168.03;;;3.58;60.84
7168;BME280;3625;51.762;14.320;2022-11-20T11:13:04;100167.16;;;3.58;60.34
7168;BME280;3625;51.762;14.320;2022-11-20T11:15:40;100168.91;;;3.53;60.50
7168;BME280;3625;51.762;14.320;2022-11-20T11:18:10;100163.66;;;3.53;62.37
7168;BME280;3625;51.762;14.320;2022-11-20T11:33:04;100146.06;;;2.86;65.01
7168;BME280;3625;51.762;14.320;2022-11-20T11:35:38;100141.69;;;2.76;67.49
7168;BME280;3625;51.762;14.320;2022-11-20T11:38:12;100137.28;;;2.68;68.65
7168;BME280;3625;51.762;14.320;2022-11-20T11:40:43;100132.91;;;2.65;68.63
7168;BME280;3625;51.762;14.320;2022-11-20T11:43:20;100134.63;;;2.55;68.54
7168;BME280;3625;51.762;14.320;2022-11-20T11:46:30;100132.81;;;2.44;69.33
7168;BME280;3625;51.762;14.320;2022-11-20T11:49:11;100137.97;;;2.35;69.93
7168;BME280;3625;51.762;14.320;2022-11-20T11:51:50;100134.44;;;2.25;69.74
7168;BME280;3625;51.762;14.320;2022-11-20T11:54:24;100132.63;;;2.13;70.00
7168;BME280;3625;51.762;14.320;2022-11-20T11:56:54;100129.13;;;2.10;71.26
7168;BME280;3625;51.762;14.320;2022-11-20T11:59:26;100129.09;;;2.08;71.36
7168;BME280;3625;51.762;14.320;2022-11-20T12:02:01;100120.44;;;2.12;71.32
7168;BME280;3625;51.762;14.320;2022-11-20T12:04:43;100119.56;;;2.12;71.48
7168;BME280;3625;51.762;14.320;2022-11-20T12:07:19;100121.34;;;2.14;70.79
7168;BME280;3625;51.762;14.320;2022-11-20T12:10:20;100111.75;;;2.10;70.63
7168;BME280;3625;51.762;14.320;2022-11-20T12:12:53;100105.66;;;2.07;70.93
7168;BME280;3625;51.762;14.320;2022-11-20T12:15:31;100045.41;;;1.69;70.59
7168;BME280;3625;51.762;14.320;2022-11-20T12:18:00;100112.56;;;2.03;70.33
7168;BME280;3625;51.762;14.320;2022-11-20T12:20:35;100103.88;;;2.03;68.05
7168;BME280;3625;51.762;14.320;2022-11-20T12:23:13;100104.72;;;2.00;68.93
7168;BME280;3625;51.762;14.320;2022-11-20T12:25:48;100102.91;;;1.92;68.31
7168;BME280;3625;51.762;14.320;2022-11-20T12:28:42;100094.16;;;1.82;68.75
7168;BME280;3625;51.762;14.320;2022-11-20T12:31:31;100097.63;;;1.79;69.57
7168;BME280;3625;51.762;14.320;2022-11-20T12:34:30;100091.50;;;1.73;69.77
7168;BME280;3625;51.762;14.320;2022-11-20T12:37:14;100098.41;;;1.68;70.69
7168;BME280;3625;51.762;14.320;2022-11-20T12:39:49;100097.50;;;1.63;70.94
7168;BME280;3625;51.762;14.320;2022-11-20T12:42:37;100093.16;;;1.62;71.42
7168;BME280;3625;51.762;14.320;2022-11-20T12:46:09;100044.31;;;1.38;71.68
7168;BME280;3625;51.762;14.320;2022-11-20T12:48:59;100087.94;;;1.62;71.94
7168;BME280;3625;51.762;14.320;2022-11-20T12:51:53;100075.75;;;1.59;72.64
7168;BME280;3625;51.762;14.320;2022-11-20T12:54:38;100076.63;;;1.60;73.67
7168;BME280;3625;51.762;14.320;2022-11-20T12:57:13;100061.81;;;1.57;74.07
7168;BME280;3625;51.762;14.320;2022-11-20T12:59:56;100065.28;;;1.58;74.85
7168;BME280;3625;51.762;14.320;2022-11-20T13:02:36;100066.16;;;1.58;75.16
7168;BME280;3625;51.762;14.320;2022-11-20T13:05:21;100070.53;;;1.61;75.36
7168;BME280;3625;51.762;14.320;2022-11-20T13:07:53;99999.94;;;1.27;75.72
7168;BME280;3625;51.762;14.320;2022-11-20T13:10:33;100066.28;;;1.73;76.36
7168;BME280;3625;51.762;14.320;2022-11-20T13:13:10;100063.72;;;1.82;76.27
7168;BME280;3625;51.762;14.320;2022-11-20T13:15:49;100062.09;;;1.97;75.34
7168;BME280;3625;51.762;14.320;2022-11-20T13:18:20;100064.78;;;2.07;75.48
7168;BME280;3625;51.762;14.320;2022-11-20T13:20:49;100069.13;;;2.11;74.40
7168;BME280;3625;51.762;14.320;2022-11-20T13:23:26;100070.84;;;2.09;75.01
7168;BME280;3625;51.762;14.320;2022-11-20T13:26:14;100061.22;;;1.99;75.45
7168;BME280;3625;51.762;14.320;2022-11-20T13:28:59;100064.63;;;1.86;76.61
7168;BME280;3625;51.762;14.320;2022-11-20T13:31:31;100068.00;;;1.70;78.07
7168;BME280;3625;51.762;14.320;2022-11-20T13:34:03;100058.34;;;1.58;78.46
7168;BME280;3625;51.762;14.320;2022-11-20T13:36:35;100058.31;;;1.52;80.01
7168;BME280;3625;51.762;14.320;2022-11-20T13:39:05;100053.91;;;1.43;79.63
7168;BME280;3625;51.762;14.320;2022-11-20T13:41:36;100046.88;;;1.35;79.97
7168;BME280;3625;51.762;14.320;2022-11-20T13:44:12;100050.25;;;1.25;81.32